Historyczne dane pomiarowe

Dodano dane terminowe – wersja testowa.

Dane z okresu 1951-2019

Wersja bazy: 1.34 [2019-03-16, lista zmian], aktualizacja planowana na 2019-04-15

Dane meteo z obszaru Polski uzyskane na podstawie danych udostępnionych przez Instytut Meteorologii i Gospodarki Wodnej – Państwowy Instytut Badawczy.

 

Wybierz Datę:    

       

TemperaturaWilgotnośćWiatrCiśnienieOpadyŚniegCzas trwania zjawisk
 Stacja t tx tn tng RH VA  wxwx mslp ppp RRR   cm mm wxwxwxwxwxwxwx
1996-08-13 18.2 24.3 12.4 7.8 59.8- 7.0 4.3---- 0.3------------
1996-08-14 17.0 20.4 14.9 13.0 76.0- 6.3 5.0---- 9.0------------
1996-08-15 17.9 22.8 14.0 12.6 84.5- 7.7 1.0---- 0.0------------
1996-08-16 17.6 23.3 12.7 10.4 81.0- 7.0 0.7---- 0.0------------
1996-08-17 19.2 26.4 13.4 9.9 54.5- 3.0 1.0---- 0.0------------
1996-08-18 17.9 27.8 9.0 6.2 68.5- 2.7 1.3---- 0.0------------
1996-08-19 18.3 27.5 9.7 6.8 64.3- 1.7 0.3---- 0.0------------
1996-08-20 18.0 27.9 9.7 6.7 72.8- 1.7 0.7---- 0.0------------
1996-08-21 17.9 27.0 10.6 7.9 82.8- 6.7 1.0---- 8.9------------
1996-08-22 20.6 25.7 16.7 15.1 67.0- 6.7 2.3---- 0.0------------
1996-08-23 18.0 26.5 11.1 8.7 74.5- 3.7 1.0---- 0.0------------
1996-08-24 18.9 26.6 11.6 8.5 67.5- 1.7 1.0---- 0.0------------
1996-08-25 17.5 24.8 11.0 7.3 79.8- 1.7 2.0---- 0.0------------
1996-08-26 16.8 20.5 12.5 8.9 85.0- 7.7 2.3---- 0.4------------
1996-08-27 18.2 22.8 15.6 13.6 85.3- 7.7 1.7---- 0.0------------
1996-08-28 17.1 23.8 11.1 8.5 66.8- 3.7 4.0---- 0.0------------
1996-08-29 18.4 24.3 13.7 9.8 50.0- 6.0 5.7---- 0.0------------
1996-08-30 17.8 24.8 12.2 8.7 54.3- 5.0 4.3---- 0.0------------
1996-08-31 17.2 25.4 10.5 5.3 57.3- 5.7 1.7---- 0.0------------
1996-09-01 18.4 26.0 11.5 7.0 59.8- 5.0 3.0---- 0.0------------
1996-09-02 16.9 26.3 9.5 5.4 68.8- 6.3 2.7---- 0.0------------
1996-09-03 18.1 26.9 12.2 8.2 65.5- 4.7 0.7---- 0.0------------
1996-09-04 15.2 23.2 7.1 3.9 77.0- 5.0 1.0---- 0.0------------
1996-09-05 13.1 18.0 10.6 6.2 78.0- 7.7 3.0---- 6.4------------
1996-09-06 10.3 13.0 9.3 6.5 88.5- 7.3 1.7---- 19.6------------
1996-09-07 11.3 13.3 9.1 4.5 96.3- 8.0 2.0---- 21.2------------
1996-09-08 11.2 12.2 10.5 10.4 90.5- 8.0 5.3---- 0.0------------
1996-09-09 9.7 13.2 8.1 7.5 76.8- 7.7 3.7---- 0.2------------
1996-09-10 9.6 13.8 7.3 3.9 81.8- 6.3 2.0---- 0.0------------
1996-09-11 8.3 10.3 6.8 3.2 95.8- 7.7 4.3---- 8.4------------
297.2 ms

 

Źródłem pochodzenia danych jest Instytut Meteorologii i Gospodarki Wodnej – Państwowy Instytut Badawczy. Dane Instytutu Meteorologii i Gospodarki Wodnej – Państwowego Instytutu Badawczego zostały przetworzone.

Dane źródłowe można odnaleźć na stronie https://dane.imgw.pl